createdAt,value
2023-04-07T00:00:48.325Z,7.97
2023-04-07T00:03:14.854Z,7.65
2023-04-07T00:05:41.363Z,7.78
2023-04-07T00:08:07.776Z,5.93
2023-04-07T00:10:34.291Z,6.88
2023-04-07T00:13:00.890Z,6.90
2023-04-07T00:15:27.438Z,9.52
2023-04-07T00:17:53.959Z,7.38
2023-04-07T00:20:20.672Z,7.32
2023-04-07T00:22:47.770Z,6.45
2023-04-07T00:25:14.266Z,8.63
2023-04-07T00:27:40.681Z,8.75
2023-04-07T00:30:07.872Z,7.35
2023-04-07T00:32:35.358Z,6.95
2023-04-07T00:35:02.937Z,7.75
2023-04-07T00:37:29.390Z,7.45
2023-04-07T00:39:57.194Z,10.38
2023-04-07T00:42:23.847Z,6.88
2023-04-07T00:44:50.540Z,7.65
2023-04-07T00:47:17.017Z,9.57
2023-04-07T00:49:43.460Z,10.68
2023-04-07T00:52:13.414Z,7.57
2023-04-07T00:54:41.940Z,9.52
2023-04-07T00:57:09.160Z,8.77
2023-04-07T00:59:36.256Z,11.00
2023-04-07T01:02:29.206Z,8.02
2023-04-07T01:05:05.570Z,7.07
2023-04-07T01:07:44.127Z,9.82
2023-04-07T01:10:17.580Z,10.48
2023-04-07T01:13:05.927Z,10.15
2023-04-07T01:15:34.925Z,7.45
2023-04-07T01:18:27.956Z,11.43
2023-04-07T01:21:00.535Z,11.32
2023-04-07T01:23:53.214Z,6.97
2023-04-07T01:26:23.948Z,7.65
2023-04-07T01:29:24.165Z,12.27
2023-04-07T01:31:51.258Z,8.95
2023-04-07T01:34:19.025Z,10.18
2023-04-07T01:36:46.760Z,11.68
2023-04-07T01:39:13.871Z,9.32
2023-04-07T01:41:41.836Z,8.65
2023-04-07T01:44:09.718Z,8.57
2023-04-07T01:46:36.370Z,11.85
2023-04-07T01:49:03.399Z,11.55
2023-04-07T01:51:31.073Z,12.02
2023-04-07T01:53:58.953Z,11.32
2023-04-07T01:56:25.574Z,10.75
2023-04-07T01:58:53.624Z,13.52
2023-04-07T02:01:23.025Z,11.80
2023-04-07T02:03:56.500Z,10.02
2023-04-07T02:06:32.055Z,12.13
2023-04-07T02:09:01.831Z,10.98
2023-04-07T02:11:31.461Z,14.10
2023-04-07T02:14:04.092Z,12.10
2023-04-07T02:16:37.678Z,11.23
2023-04-07T02:19:05.318Z,13.80
2023-04-07T02:21:34.272Z,11.88
2023-04-07T02:24:01.957Z,13.77
2023-04-07T02:26:34.277Z,15.02
2023-04-07T02:29:05.614Z,12.98
2023-04-07T02:31:32.236Z,14.48
2023-04-07T02:34:00.705Z,14.23
2023-04-07T02:36:27.223Z,14.40
2023-04-07T02:38:54.450Z,13.38
2023-04-07T02:41:21.435Z,14.50
2023-04-07T02:43:47.933Z,17.35
2023-04-07T02:46:16.602Z,19.17
2023-04-07T02:48:43.176Z,20.13
2023-04-07T02:51:09.795Z,18.40
2023-04-07T02:53:36.367Z,15.32
2023-04-07T02:56:04.535Z,19.55
2023-04-07T02:58:31.047Z,16.13
2023-04-07T03:00:57.606Z,17.33
2023-04-07T03:03:27.891Z,15.30
2023-04-07T03:06:09.076Z,15.25
2023-04-07T03:08:44.010Z,16.58
2023-04-07T03:11:10.809Z,17.33
2023-04-07T03:13:37.858Z,14.57
2023-04-07T03:16:04.345Z,15.95
2023-04-07T03:18:37.184Z,13.48
2023-04-07T03:21:04.984Z,14.45
2023-04-07T03:23:31.551Z,17.65
2023-04-07T03:25:59.288Z,18.63
2023-04-07T03:28:30.503Z,15.27
2023-04-07T03:30:56.984Z,16.05
2023-04-07T03:33:23.622Z,19.30
2023-04-07T03:35:50.267Z,21.60
2023-04-07T03:38:16.840Z,18.58
2023-04-07T03:40:43.275Z,19.02
2023-04-07T03:43:13.960Z,21.67
2023-04-07T03:45:40.452Z,17.65
2023-04-07T03:48:11.949Z,22.27
2023-04-07T03:50:47.190Z,21.10
2023-04-07T03:53:16.929Z,19.45
2023-04-07T03:55:44.328Z,21.83
2023-04-07T03:58:19.582Z,20.17
2023-04-07T04:00:48.082Z,20.08
2023-04-07T04:03:14.725Z,20.88
2023-04-07T04:06:11.278Z,18.05
2023-04-07T04:08:37.766Z,21.52
2023-04-07T04:11:05.520Z,17.50
2023-04-07T04:13:38.644Z,19.77
2023-04-07T04:16:06.956Z,25.45
2023-04-07T04:18:34.828Z,21.50
2023-04-07T04:21:01.595Z,24.15
2023-04-07T04:23:28.037Z,24.42
2023-04-07T04:25:56.927Z,20.38
2023-04-07T04:28:23.424Z,22.60
2023-04-07T04:30:50.256Z,25.27
2023-04-07T04:33:17.272Z,25.23
2023-04-07T04:35:51.882Z,22.65
2023-04-07T04:38:19.988Z,23.23
2023-04-07T04:40:53.528Z,23.02
2023-04-07T04:43:25.433Z,29.27
2023-04-07T04:45:52.114Z,26.63
2023-04-07T04:48:22.755Z,25.58
2023-04-07T04:50:49.188Z,25.67
2023-04-07T04:53:15.640Z,26.52
2023-04-07T04:55:58.430Z,26.45
2023-04-07T04:58:35.875Z,28.50
2023-04-07T05:01:02.348Z,27.92
2023-04-07T05:03:42.558Z,25.88
2023-04-07T05:06:18.128Z,25.55
2023-04-07T05:08:47.464Z,24.77
2023-04-07T05:11:16.606Z,25.63
2023-04-07T05:13:45.665Z,26.88
2023-04-07T05:16:12.158Z,29.83
2023-04-07T05:18:38.739Z,28.83
2023-04-07T05:21:05.575Z,25.98
2023-04-07T05:23:35.780Z,29.75
2023-04-07T05:26:03.612Z,27.23
2023-04-07T05:28:30.758Z,27.35
2023-04-07T05:31:01.561Z,26.10
2023-04-07T05:33:31.239Z,29.88
2023-04-07T05:35:57.712Z,27.00
2023-04-07T05:38:24.159Z,26.88
2023-04-07T05:40:54.199Z,27.25
2023-04-07T05:45:52.149Z,26.08
2023-04-07T05:48:18.682Z,27.48
2023-04-07T05:50:47.015Z,25.85
2023-04-07T05:53:16.829Z,26.45
2023-04-07T05:55:43.631Z,27.85
2023-04-07T05:58:14.040Z,28.58
2023-04-07T06:00:44.618Z,30.90
2023-04-07T06:03:14.927Z,31.25
2023-04-07T06:05:53.610Z,28.73
2023-04-07T06:08:21.727Z,26.48
2023-04-07T06:10:48.252Z,31.23
2023-04-07T06:13:14.720Z,29.50
2023-04-07T06:15:42.330Z,27.45
2023-04-07T06:18:09.646Z,26.60
2023-04-07T06:20:36.271Z,29.52
2023-04-07T06:23:02.753Z,28.08
2023-04-07T06:25:29.172Z,25.77
2023-04-07T06:27:55.648Z,29.00
2023-04-07T06:30:22.741Z,26.40
2023-04-07T06:32:49.406Z,28.40
2023-04-07T06:35:16.107Z,28.00
2023-04-07T06:37:42.581Z,27.88
2023-04-07T06:40:09.480Z,21.75
2023-04-07T06:42:35.953Z,25.30
2023-04-07T06:45:18.369Z,29.48
2023-04-07T06:47:44.881Z,33.75
2023-04-07T06:50:11.516Z,23.95
2023-04-07T06:52:38.047Z,28.15
2023-04-07T06:55:05.017Z,27.98
2023-04-07T06:57:31.525Z,26.50
2023-04-07T06:59:57.963Z,27.40
2023-04-07T07:02:24.721Z,24.05
2023-04-07T07:04:51.263Z,32.05
2023-04-07T07:07:17.653Z,24.52
2023-04-07T07:09:44.037Z,26.75
2023-04-07T07:12:10.495Z,26.25
2023-04-07T07:14:36.860Z,26.55
2023-04-07T07:17:03.544Z,28.63
2023-04-07T07:19:29.957Z,29.42
2023-04-07T07:21:56.381Z,25.10
2023-04-07T07:24:22.805Z,25.65
2023-04-07T07:26:49.230Z,32.55
2023-04-07T07:29:15.957Z,30.65
2023-04-07T07:31:42.620Z,27.95
2023-04-07T07:34:09.038Z,26.15
2023-04-07T07:36:35.555Z,30.08
2023-04-07T07:39:02.060Z,27.40
2023-04-07T07:41:28.506Z,26.15
2023-04-07T07:43:54.905Z,25.77
2023-04-07T07:46:21.348Z,23.98
2023-04-07T07:48:47.807Z,26.95
2023-04-07T07:51:14.224Z,22.00
2023-04-07T07:53:40.643Z,24.08
2023-04-07T07:56:07.034Z,24.70
2023-04-07T07:58:33.543Z,22.35
2023-04-07T08:00:59.942Z,21.42
2023-04-07T08:03:26.445Z,23.05
2023-04-07T08:05:53.004Z,24.85
2023-04-07T08:08:19.461Z,24.15
2023-04-07T08:10:46.039Z,23.10
2023-04-07T08:13:12.530Z,23.27
2023-04-07T08:15:39.796Z,24.98
2023-04-07T08:18:07.136Z,24.58
2023-04-07T08:20:33.799Z,21.23
2023-04-07T08:23:02.143Z,25.33
2023-04-07T08:25:29.243Z,21.55
2023-04-07T08:27:56.042Z,26.73
2023-04-07T08:30:22.675Z,24.27
2023-04-07T08:32:49.218Z,24.33
2023-04-07T08:35:15.635Z,26.40
2023-04-07T08:37:44.129Z,23.20
2023-04-07T08:40:11.748Z,23.05
2023-04-07T08:42:42.338Z,24.35
2023-04-07T08:45:09.877Z,26.13
2023-04-07T08:47:37.191Z,22.17
2023-04-07T08:50:07.037Z,25.95
2023-04-07T08:53:07.524Z,25.50
2023-04-07T08:55:36.371Z,22.35
2023-04-07T08:58:04.201Z,20.60
2023-04-07T09:00:31.821Z,20.95
2023-04-07T09:03:00.454Z,22.17
2023-04-07T09:05:27.272Z,21.08
2023-04-07T09:07:53.699Z,24.08
2023-04-07T09:10:20.236Z,22.40
2023-04-07T09:12:47.316Z,17.10
2023-04-07T09:15:13.695Z,17.02
2023-04-07T09:17:40.435Z,17.67
2023-04-07T09:20:07.367Z,14.73
2023-04-07T09:22:47.650Z,18.33
2023-04-07T09:25:17.141Z,17.20
2023-04-07T09:27:57.917Z,15.95
2023-04-07T09:30:24.665Z,17.45
2023-04-07T09:32:51.737Z,19.60
2023-04-07T09:35:18.430Z,19.40
2023-04-07T09:38:01.419Z,12.20
2023-04-07T09:40:27.920Z,13.00
2023-04-07T09:42:54.616Z,13.07
2023-04-07T09:45:35.474Z,13.30
2023-04-07T09:48:19.212Z,13.15
2023-04-07T09:50:49.611Z,13.00
2023-04-07T09:53:16.965Z,13.02
2023-04-07T09:55:43.887Z,11.77
2023-04-07T09:58:13.998Z,11.45
2023-04-07T10:00:41.734Z,14.60
2023-04-07T10:03:08.886Z,12.23
2023-04-07T10:05:36.675Z,12.95
2023-04-07T10:08:03.407Z,12.43
2023-04-07T10:10:31.690Z,11.25
2023-04-07T10:12:59.039Z,13.65
2023-04-07T10:15:25.756Z,13.77
2023-04-07T10:17:53.666Z,11.13
2023-04-07T10:20:21.317Z,11.55
2023-04-07T10:22:51.378Z,11.23
2023-04-07T10:25:21.280Z,10.95
2023-04-07T10:28:03.563Z,11.18
2023-04-07T10:30:32.368Z,10.02
2023-04-07T10:32:59.415Z,10.10
2023-04-07T10:35:26.349Z,9.38
2023-04-07T10:38:08.009Z,8.07
2023-04-07T10:40:35.842Z,10.60
2023-04-07T10:43:03.490Z,10.77
2023-04-07T10:45:55.931Z,9.23
2023-04-07T10:48:22.807Z,8.75
2023-04-07T10:51:15.168Z,8.32
2023-04-07T10:54:23.765Z,9.38
2023-04-07T10:57:02.498Z,6.00
2023-04-07T10:59:33.046Z,6.85
2023-04-07T11:02:14.977Z,9.38
2023-04-07T11:04:44.699Z,8.75
2023-04-07T11:07:13.206Z,8.35
2023-04-07T11:09:40.910Z,7.00
2023-04-07T11:12:08.259Z,6.40
2023-04-07T11:14:37.429Z,6.32
2023-04-07T11:17:04.581Z,7.90
2023-04-07T11:19:32.422Z,7.47
2023-04-07T11:22:28.486Z,7.45
2023-04-07T11:24:56.985Z,7.32
2023-04-07T11:27:23.608Z,8.38
2023-04-07T11:29:50.353Z,7.90
2023-04-07T11:32:26.071Z,6.18
2023-04-07T11:34:52.850Z,6.03
2023-04-07T11:37:24.805Z,8.95
2023-04-07T11:39:58.483Z,7.88
2023-04-07T11:42:35.387Z,9.15
2023-04-07T11:45:01.992Z,7.90
2023-04-07T11:47:40.268Z,5.78
2023-04-07T11:50:07.600Z,5.55
2023-04-07T11:52:48.151Z,7.07
2023-04-07T11:55:22.554Z,6.63
2023-04-07T11:57:51.121Z,6.13
2023-04-07T12:00:18.521Z,8.88
2023-04-07T12:02:45.114Z,9.07
2023-04-07T12:05:11.808Z,6.63
2023-04-07T12:07:39.489Z,8.88
2023-04-07T12:10:22.112Z,7.93
2023-04-07T12:12:49.224Z,10.35
2023-04-07T12:15:15.837Z,11.05
2023-04-07T12:17:48.979Z,8.48
2023-04-07T12:20:16.508Z,8.15
2023-04-07T12:22:43.139Z,8.52
2023-04-07T12:25:09.647Z,7.15
2023-04-07T12:27:42.223Z,8.50
2023-04-07T12:30:09.913Z,7.57
2023-04-07T12:32:37.681Z,7.80
2023-04-07T12:35:05.278Z,5.88
2023-04-07T12:37:32.758Z,8.55
2023-04-07T12:39:59.877Z,9.63
2023-04-07T12:42:27.546Z,4.93
2023-04-07T12:44:53.942Z,7.35
2023-04-07T12:47:20.743Z,6.78
2023-04-07T12:49:49.283Z,7.93
2023-04-07T12:52:16.793Z,5.70
2023-04-07T12:54:44.322Z,6.88
2023-04-07T12:57:11.211Z,7.68
2023-04-07T12:59:37.601Z,8.90
2023-04-07T13:02:04.256Z,11.20
2023-04-07T13:04:31.381Z,6.70
2023-04-07T13:06:57.961Z,7.07
2023-04-07T13:09:25.071Z,8.15
2023-04-07T13:11:51.534Z,6.55
2023-04-07T13:14:18.003Z,12.02
2023-04-07T13:16:44.766Z,7.45
2023-04-07T13:19:11.190Z,7.63
2023-04-07T13:24:07.060Z,6.43
2023-04-07T13:26:34.598Z,4.97
2023-04-07T13:29:01.218Z,5.85
2023-04-07T13:31:28.453Z,6.97
2023-04-07T13:33:54.917Z,6.78
2023-04-07T13:36:23.328Z,6.75
2023-04-07T13:38:50.166Z,8.60
2023-04-07T13:41:16.609Z,7.68
2023-04-07T13:43:43.031Z,7.50
2023-04-07T13:48:47.539Z,6.07
2023-04-07T13:51:13.975Z,6.63
2023-04-07T13:53:40.364Z,8.52
2023-04-07T13:56:08.423Z,9.93
2023-04-07T13:58:35.378Z,8.50
2023-04-07T14:01:02.213Z,7.22
2023-04-07T14:03:28.797Z,8.60
2023-04-07T14:05:55.451Z,6.07
2023-04-07T14:08:23.563Z,6.20
2023-04-07T14:10:50.115Z,5.60
2023-04-07T14:13:16.728Z,4.82
2023-04-07T14:15:43.125Z,8.05
2023-04-07T14:18:09.668Z,8.10
2023-04-07T14:20:37.028Z,6.45
2023-04-07T14:23:03.448Z,7.82
2023-04-07T14:25:29.934Z,9.73
2023-04-07T14:27:56.409Z,5.82
2023-04-07T14:30:23.011Z,6.35
2023-04-07T14:32:49.513Z,7.85
2023-04-07T14:35:16.038Z,9.45
2023-04-07T14:37:42.482Z,8.48
2023-04-07T14:40:09.350Z,6.13
2023-04-07T14:42:36.976Z,5.93
2023-04-07T14:45:04.417Z,4.20
2023-04-07T14:47:31.468Z,4.28
2023-04-07T14:49:57.895Z,5.22
2023-04-07T14:52:24.644Z,5.60
2023-04-07T14:54:51.070Z,4.60
2023-04-07T14:57:17.486Z,5.90
2023-04-07T14:59:44.240Z,7.07
2023-04-07T15:02:11.175Z,8.20
2023-04-07T15:04:37.992Z,44.63
2023-04-07T15:07:05.211Z,22.70
2023-04-07T15:09:31.705Z,9.68
2023-04-07T15:11:58.196Z,7.47
2023-04-07T15:14:24.587Z,5.57
2023-04-07T15:16:51.048Z,5.05
2023-04-07T15:19:17.480Z,5.95
2023-04-07T15:21:43.987Z,7.20
2023-04-07T15:24:10.402Z,5.82
2023-04-07T15:26:36.866Z,5.22
2023-04-07T15:29:03.323Z,4.53
2023-04-07T15:31:30.007Z,5.35
2023-04-07T15:33:56.541Z,9.45
2023-04-07T15:36:22.950Z,6.38
2023-04-07T15:38:49.412Z,5.57
2023-04-07T15:41:19.048Z,6.07
2023-04-07T15:43:45.475Z,6.68
2023-04-07T15:46:12.072Z,8.13
2023-04-07T15:48:38.499Z,8.18
2023-04-07T15:51:04.971Z,7.50
2023-04-07T15:53:31.486Z,5.72
2023-04-07T15:55:57.907Z,5.68
2023-04-07T15:58:24.438Z,9.45
2023-04-07T16:00:51.259Z,9.85
2023-04-07T16:03:18.003Z,6.53
2023-04-07T16:05:44.540Z,8.60
2023-04-07T16:08:13.251Z,9.10
2023-04-07T16:10:40.754Z,6.47
2023-04-07T16:13:07.281Z,9.70
2023-04-07T16:15:40.053Z,11.52
2023-04-07T16:18:09.999Z,9.93
2023-04-07T16:20:36.627Z,8.20
2023-04-07T16:23:03.082Z,11.77
2023-04-07T16:25:29.825Z,6.43
2023-04-07T16:27:56.308Z,7.85
2023-04-07T16:30:24.950Z,12.48
2023-04-07T16:32:51.451Z,9.18
2023-04-07T16:35:17.887Z,12.13
2023-04-07T16:37:46.569Z,10.75
2023-04-07T16:40:13.479Z,8.60
2023-04-07T16:42:39.928Z,8.18
2023-04-07T16:45:06.808Z,11.07
2023-04-07T16:47:33.452Z,11.70
2023-04-07T16:49:59.987Z,8.82
2023-04-07T16:52:26.550Z,9.07
2023-04-07T16:54:53.124Z,8.52
2023-04-07T16:57:19.572Z,10.57
2023-04-07T16:59:46.395Z,5.82
2023-04-07T17:02:16.162Z,7.70
2023-04-07T17:04:44.008Z,6.88
2023-04-07T17:07:11.472Z,12.13
2023-04-07T17:09:38.522Z,9.85
2023-04-07T17:12:06.066Z,8.10
2023-04-07T17:14:32.709Z,9.45
2023-04-07T17:16:59.276Z,8.30
2023-04-07T17:19:25.693Z,8.68
2023-04-07T17:21:52.146Z,8.77
2023-04-07T17:24:18.630Z,9.57
2023-04-07T17:26:48.468Z,7.78
2023-04-07T17:29:16.457Z,10.88
2023-04-07T17:31:43.088Z,6.38
2023-04-07T17:34:10.430Z,7.50
2023-04-07T17:36:37.615Z,7.80
2023-04-07T17:39:04.931Z,12.18
2023-04-07T17:41:34.262Z,13.40
2023-04-07T17:44:01.203Z,12.90
2023-04-07T17:46:27.773Z,14.68
2023-04-07T17:48:55.037Z,13.50
2023-04-07T17:51:21.491Z,12.57
2023-04-07T17:53:48.596Z,11.63
2023-04-07T17:56:15.229Z,9.63
2023-04-07T17:58:41.766Z,10.90
2023-04-07T18:01:12.342Z,12.30
2023-04-07T18:03:38.865Z,8.15
2023-04-07T18:06:06.984Z,8.70
2023-04-07T18:08:33.395Z,10.10
2023-04-07T18:10:59.942Z,9.60
2023-04-07T18:13:26.439Z,8.48
2023-04-07T18:15:53.166Z,8.15
2023-04-07T18:18:20.201Z,8.93
2023-04-07T18:20:46.627Z,9.30
2023-04-07T18:23:13.564Z,12.40
2023-04-07T18:25:40.014Z,9.93
2023-04-07T18:28:06.448Z,18.98
2023-04-07T18:30:32.891Z,13.07
2023-04-07T18:32:59.337Z,14.23
2023-04-07T18:35:26.165Z,11.60
2023-04-07T18:37:52.600Z,10.02
2023-04-07T18:40:19.128Z,15.77
2023-04-07T18:42:45.669Z,14.00
2023-04-07T18:45:12.085Z,11.00
2023-04-07T18:47:38.942Z,9.27
2023-04-07T18:50:06.009Z,9.30
2023-04-07T18:52:32.394Z,11.40
2023-04-07T18:54:58.934Z,17.70
2023-04-07T18:57:25.384Z,12.43
2023-04-07T18:59:52.804Z,12.48
2023-04-07T19:02:19.390Z,13.38
2023-04-07T19:04:45.936Z,15.10
2023-04-07T19:07:12.343Z,16.25
2023-04-07T19:09:39.171Z,12.98
2023-04-07T19:12:05.607Z,23.05
2023-04-07T19:14:31.993Z,14.25
2023-04-07T19:16:58.459Z,13.98
2023-04-07T19:19:24.893Z,14.23
2023-04-07T19:21:51.338Z,13.10
2023-04-07T19:24:17.790Z,10.85
2023-04-07T19:26:44.527Z,11.20
2023-04-07T19:29:12.471Z,10.50
2023-04-07T19:31:39.468Z,13.40
2023-04-07T19:34:06.199Z,12.20
2023-04-07T19:36:32.794Z,12.40
2023-04-07T19:38:59.279Z,13.32
2023-04-07T19:41:25.896Z,12.73
2023-04-07T19:43:53.206Z,10.32
2023-04-07T19:46:19.722Z,9.15
2023-04-07T19:48:46.861Z,11.73
2023-04-07T19:51:13.389Z,13.80
2023-04-07T19:53:39.950Z,17.50
2023-04-07T19:56:06.488Z,15.73
2023-04-07T19:58:34.299Z,15.88
2023-04-07T20:01:00.939Z,15.70
2023-04-07T20:03:27.545Z,14.40
2023-04-07T20:05:54.348Z,16.23
2023-04-07T20:08:20.794Z,14.20
2023-04-07T20:10:47.305Z,14.73
2023-04-07T20:13:13.707Z,12.13
2023-04-07T20:15:40.155Z,11.57
2023-04-07T20:18:06.626Z,13.25
2023-04-07T20:20:33.123Z,11.55
2023-04-07T20:22:59.608Z,9.40
2023-04-07T20:25:26.258Z,9.38
2023-04-07T20:27:52.675Z,9.55
2023-04-07T20:30:19.122Z,8.38
2023-04-07T20:32:46.877Z,8.57
2023-04-07T20:35:13.575Z,9.95
2023-04-07T20:37:39.992Z,9.85
2023-04-07T20:40:07.347Z,10.88
2023-04-07T20:42:34.482Z,5.82
2023-04-07T20:45:03.665Z,7.97
2023-04-07T20:47:31.319Z,8.45
2023-04-07T20:49:58.612Z,9.50
2023-04-07T20:52:26.682Z,11.02
2023-04-07T20:54:53.150Z,8.57
2023-04-07T20:57:19.555Z,7.03
2023-04-07T20:59:46.024Z,8.02
2023-04-07T21:02:12.596Z,9.90
2023-04-07T21:04:39.176Z,9.05
2023-04-07T21:07:05.841Z,9.75
2023-04-07T21:09:32.284Z,12.32
2023-04-07T21:11:59.998Z,10.27
2023-04-07T21:14:26.371Z,8.57
2023-04-07T21:16:52.745Z,13.10
2023-04-07T21:19:19.128Z,12.52
2023-04-07T21:21:45.703Z,9.77
2023-04-07T21:24:12.087Z,8.02
2023-04-07T21:26:38.466Z,7.30
2023-04-07T21:29:05.019Z,5.53
2023-04-07T21:31:32.593Z,5.85
2023-04-07T21:33:59.024Z,6.38
2023-04-07T21:36:25.759Z,7.82
2023-04-07T21:38:52.243Z,7.45
2023-04-07T21:41:18.658Z,7.32
2023-04-07T21:43:45.179Z,8.00
2023-04-07T21:46:11.920Z,11.57
2023-04-07T21:48:38.333Z,7.80
2023-04-07T21:51:04.749Z,9.65
2023-04-07T21:53:31.950Z,11.18
2023-04-07T21:55:58.356Z,15.32
2023-04-07T21:58:25.211Z,16.83
2023-04-07T22:00:52.823Z,12.82
2023-04-07T22:03:19.533Z,17.17
2023-04-07T22:05:48.760Z,16.27
2023-04-07T22:08:15.541Z,17.10
2023-04-07T22:10:43.098Z,18.67
2023-04-07T22:13:09.518Z,20.45
2023-04-07T22:15:36.090Z,18.02
2023-04-07T22:18:03.461Z,20.17
2023-04-07T22:20:29.921Z,21.77
2023-04-07T22:22:57.477Z,18.77
2023-04-07T22:25:24.810Z,19.38
2023-04-07T22:27:52.353Z,22.13
2023-04-07T22:30:19.860Z,23.63
2023-04-07T22:32:47.930Z,21.23
2023-04-07T22:35:14.417Z,18.08
2023-04-07T22:37:40.915Z,21.65
2023-04-07T22:40:08.432Z,21.75
2023-04-07T22:42:34.891Z,20.35
2023-04-07T22:45:01.430Z,23.38
2023-04-07T22:47:27.906Z,21.00
2023-04-07T22:49:54.341Z,20.27
2023-04-07T22:52:20.834Z,20.83
2023-04-07T22:54:47.236Z,20.63
2023-04-07T22:57:13.652Z,20.67
2023-04-07T22:59:40.309Z,22.40
2023-04-07T23:02:06.789Z,25.17
2023-04-07T23:04:33.324Z,23.92
2023-04-07T23:06:59.722Z,20.13
2023-04-07T23:09:26.375Z,19.52
2023-04-07T23:11:52.931Z,20.67
2023-04-07T23:14:19.343Z,20.58
2023-04-07T23:16:46.068Z,22.48
2023-04-07T23:19:15.458Z,27.08
2023-04-07T23:21:42.846Z,25.17
2023-04-07T23:24:09.719Z,27.10
2023-04-07T23:26:36.116Z,21.38
2023-04-07T23:29:03.205Z,25.05
2023-04-07T23:31:29.802Z,26.73
2023-04-07T23:33:58.535Z,25.98
2023-04-07T23:36:24.930Z,26.83
2023-04-07T23:38:51.576Z,25.77
2023-04-07T23:41:18.333Z,25.27
2023-04-07T23:43:44.733Z,26.05
2023-04-07T23:46:11.232Z,26.38
2023-04-07T23:48:37.690Z,26.63
2023-04-07T23:51:04.298Z,25.67
2023-04-07T23:53:30.845Z,27.00
2023-04-07T23:55:57.499Z,26.85
2023-04-07T23:58:23.946Z,27.30
